sensor_id;sensor_type;location;lat;lon;timestamp;pressure;altitude;pressure_sealevel;temperature;humidity
68199;BME280;55021;51.554;17.044;2023-04-23T00:14:30;100060.50;;;10.41;64.34
68199;BME280;55021;51.554;17.044;2023-04-23T00:29:32;100068.78;;;10.82;60.85
68199;BME280;55021;51.554;17.044;2023-04-23T00:44:35;99967.97;;;10.14;62.05
68199;BME280;55021;51.554;17.044;2023-04-23T00:59:37;99982.06;;;10.33;61.20
68199;BME280;55021;51.554;17.044;2023-04-23T01:14:40;100035.16;;;10.84;60.77
68199;BME280;55021;51.554;17.044;2023-04-23T01:29:43;100022.47;;;10.93;61.47
68199;BME280;55021;51.554;17.044;2023-04-23T01:44:46;99969.50;;;10.82;60.12
68199;BME280;55021;51.554;17.044;2023-04-23T01:59:48;99946.53;;;10.78;59.31
68199;BME280;55021;51.554;17.044;2023-04-23T02:14:51;99939.59;;;10.68;59.70
68199;BME280;55021;51.554;17.044;2023-04-23T02:29:54;99888.09;;;10.27;61.23
68199;BME280;55021;51.554;17.044;2023-04-23T02:44:56;99998.63;;;10.88;61.51
68199;BME280;55021;51.554;17.044;2023-04-23T02:59:59;100003.03;;;10.89;61.60
68199;BME280;55021;51.554;17.044;2023-04-23T03:15:01;99974.56;;;10.61;62.20
68199;BME280;55021;51.554;17.044;2023-04-23T03:30:04;99985.56;;;10.68;62.02
68199;BME280;55021;51.554;17.044;2023-04-23T03:45:07;99988.09;;;10.61;61.55
68199;BME280;55021;51.554;17.044;2023-04-23T04:00:11;99988.28;;;10.60;62.05
68199;BME280;55021;51.554;17.044;2023-04-23T04:15:14;99989.16;;;10.92;62.07
68199;BME280;55021;51.554;17.044;2023-04-23T04:30:16;99956.66;;;11.33;61.22
68199;BME280;55021;51.554;17.044;2023-04-23T04:45:19;99981.91;;;12.12;59.72
68199;BME280;55021;51.554;17.044;2023-04-23T05:00:24;99977.69;;;12.71;59.96
68199;BME280;55021;51.554;17.044;2023-04-23T05:15:27;99948.47;;;13.19;58.52
68199;BME280;55021;51.554;17.044;2023-04-23T05:30:29;99917.38;;;13.73;57.77
68199;BME280;55021;51.554;17.044;2023-04-23T05:45:32;99953.66;;;14.75;56.44
68199;BME280;55021;51.554;17.044;2023-04-23T06:00:34;99950.41;;;15.84;53.14
68199;BME280;55021;51.554;17.044;2023-04-23T06:15:36;99945.50;;;16.54;52.25
68199;BME280;55021;51.554;17.044;2023-04-23T06:30:39;99928.84;;;17.49;51.55
68199;BME280;55021;51.554;17.044;2023-04-23T06:45:52;99913.09;;;18.35;49.89
68199;BME280;55021;51.554;17.044;2023-04-23T07:00:55;99903.63;;;19.31;48.04
68199;BME280;55021;51.554;17.044;2023-04-23T07:15:58;99898.19;;;19.49;46.30
68199;BME280;55021;51.554;17.044;2023-04-23T07:31:01;99842.78;;;20.31;44.85
68199;BME280;55021;51.554;17.044;2023-04-23T07:46:03;99770.13;;;20.27;43.05
68199;BME280;55021;51.554;17.044;2023-04-23T08:01:06;99862.19;;;21.08;40.93
68199;BME280;55021;51.554;17.044;2023-04-23T08:16:09;99861.28;;;21.37;41.46
68199;BME280;55021;51.554;17.044;2023-04-23T08:31:11;99829.09;;;21.61;41.48
68199;BME280;55021;51.554;17.044;2023-04-23T08:46:14;99799.38;;;22.26;39.78
68199;BME280;55021;51.554;17.044;2023-04-23T09:01:19;99792.63;;;22.33;39.74
68199;BME280;55021;51.554;17.044;2023-04-23T09:16:22;99826.53;;;23.07;39.65
68199;BME280;55021;51.554;17.044;2023-04-23T09:31:24;99796.81;;;24.07;37.81
68199;BME280;55021;51.554;17.044;2023-04-23T09:46:37;99783.53;;;24.79;38.55
68199;BME280;55021;51.554;17.044;2023-04-23T10:01:44;99776.25;;;25.37;36.65
68199;BME280;55021;51.554;17.044;2023-04-23T10:17:08;99781.94;;;25.62;36.13
68199;BME280;55021;51.554;17.044;2023-04-23T10:32:19;99785.75;;;24.51;36.26
68199;BME280;55021;51.554;17.044;2023-04-23T10:47:25;99786.09;;;24.59;37.66
68199;BME280;55021;51.554;17.044;2023-04-23T11:02:59;99790.97;;;24.47;38.02
68199;BME280;55021;51.554;17.044;2023-04-23T11:18:33;99805.81;;;24.41;38.30
68199;BME280;55021;51.554;17.044;2023-04-23T11:34:18;99747.47;;;25.06;37.55
68199;BME280;55021;51.554;17.044;2023-04-23T11:49:22;99789.56;;;24.76;35.52
68199;BME280;55021;51.554;17.044;2023-04-23T12:05:02;99790.22;;;23.86;39.04
68199;BME280;55021;51.554;17.044;2023-04-23T12:51:19;99840.13;;;20.73;47.32
68199;BME280;55021;51.554;17.044;2023-04-23T13:06:47;99854.41;;;19.97;55.87
68199;BME280;55021;51.554;17.044;2023-04-23T13:22:04;99828.69;;;20.99;50.89
68199;BME280;55021;51.554;17.044;2023-04-23T13:37:07;99779.09;;;21.92;49.71
68199;BME280;55021;51.554;17.044;2023-04-23T14:08:17;99777.00;;;23.33;47.80
68199;BME280;55021;51.554;17.044;2023-04-23T14:38:49;99789.56;;;22.91;47.38
68199;BME280;55021;51.554;17.044;2023-04-23T14:53:51;99785.84;;;23.14;48.04
68199;BME280;55021;51.554;17.044;2023-04-23T15:08:54;99790.66;;;21.77;52.11
68199;BME280;55021;51.554;17.044;2023-04-23T15:23:57;99775.94;;;20.79;52.63
68199;BME280;55021;51.554;17.044;2023-04-23T15:38:59;99790.53;;;20.20;52.01
68199;BME280;55021;51.554;17.044;2023-04-23T15:54:11;99805.09;;;19.30;53.99
68199;BME280;55021;51.554;17.044;2023-04-23T16:09:14;99756.22;;;17.77;61.99
68199;BME280;55021;51.554;17.044;2023-04-23T16:24:17;99721.34;;;18.10;63.14
68199;BME280;55021;51.554;17.044;2023-04-23T16:39:19;99777.06;;;19.46;58.08
68199;BME280;55021;51.554;17.044;2023-04-23T16:54:21;99747.97;;;18.52;60.45
68199;BME280;55021;51.554;17.044;2023-04-23T17:09:24;99747.81;;;18.72;57.84
68199;BME280;55021;51.554;17.044;2023-04-23T17:24:26;99741.63;;;19.08;56.80
68199;BME280;55021;51.554;17.044;2023-04-23T17:39:29;99756.16;;;18.59;58.71
68199;BME280;55021;51.554;17.044;2023-04-23T17:54:32;99702.06;;;18.73;56.55
68199;BME280;55021;51.554;17.044;2023-04-23T18:09:35;99748.97;;;18.33;59.05
68199;BME280;55021;51.554;17.044;2023-04-23T18:24:39;99749.94;;;18.14;59.73
68199;BME280;55021;51.554;17.044;2023-04-23T18:39:53;99742.72;;;17.82;61.07
68199;BME280;55021;51.554;17.044;2023-04-23T18:54:56;99749.28;;;17.68;61.92
68199;BME280;55021;51.554;17.044;2023-04-23T19:10:11;99729.41;;;17.41;61.41
68199;BME280;55021;51.554;17.044;2023-04-23T19:25:15;99730.69;;;17.45;62.78
68199;BME280;55021;51.554;17.044;2023-04-23T19:40:19;99736.22;;;17.25;63.90
68199;BME280;55021;51.554;17.044;2023-04-23T19:55:23;99725.94;;;17.14;64.14
68199;BME280;55021;51.554;17.044;2023-04-23T20:10:25;99665.19;;;17.12;64.18
68199;BME280;55021;51.554;17.044;2023-04-23T20:25:28;99691.22;;;17.21;65.05
68199;BME280;55021;51.554;17.044;2023-04-23T20:40:33;99676.16;;;16.79;66.35
68199;BME280;55021;51.554;17.044;2023-04-23T20:55:36;99651.75;;;16.98;65.89
68199;BME280;55021;51.554;17.044;2023-04-23T21:10:39;99669.38;;;17.15;65.94
68199;BME280;55021;51.554;17.044;2023-04-23T21:41:05;99610.72;;;16.14;69.69
68199;BME280;55021;51.554;17.044;2023-04-23T21:56:07;99548.38;;;15.85;70.41
68199;BME280;55021;51.554;17.044;2023-04-23T22:11:10;99599.97;;;16.45;69.43
68199;BME280;55021;51.554;17.044;2023-04-23T22:41:45;99565.81;;;16.03;70.28
68199;BME280;55021;51.554;17.044;2023-04-23T22:56:47;99542.25;;;15.56;71.07
68199;BME280;55021;51.554;17.044;2023-04-23T23:11:50;99555.28;;;16.13;69.75
68199;BME280;55021;51.554;17.044;2023-04-23T23:26:53;99538.91;;;16.13;68.49
68199;BME280;55021;51.554;17.044;2023-04-23T23:41:55;99545.84;;;16.16;69.09
68199;BME280;55021;51.554;17.044;2023-04-23T23:56:57;99531.34;;;16.22;68.01
